Time;durP1;ratioP1;P1;durP2;ratioP2;P2;SDS_P1;SDS_P2;PMS_P1;PMS_P2;Temp;Humidity;BMP_temperature;BMP_pressure;BME280_temperature;BME280_humidity;BME280_pressure;Samples;Min_cycle;Max_cycle;Signal;HPM_P1;HPM_P2
2021/04/14 00:00:27;;;;;;;6.47;2.58;;;2.50;99.90;;;;;;5070025;28;20032;-45
2021/04/14 00:02:55;;;;;;;11.65;3.28;;;2.40;99.90;;;;;;5070654;28;20094;-46
2021/04/14 00:05:24;;;;;;;8.65;2.47;;;2.40;99.90;;;;;;5085302;28;20413;-46
2021/04/14 00:07:50;;;;;;;7.72;2.38;;;2.40;99.90;;;;;;5089864;28;20032;-45
2021/04/14 00:10:25;;;;;;;11.82;2.83;;;2.40;99.90;;;;;;5072624;28;20710;-45
2021/04/14 00:12:51;;;;;;;7.43;2.22;;;2.40;99.90;;;;;;5090502;28;20028;-46
2021/04/14 00:15:21;;;;;;;15.68;3.30;;;2.40;99.90;;;;;;5090169;28;20020;-46
2021/04/14 00:17:47;;;;;;;8.23;2.38;;;2.30;99.90;;;;;;5089604;28;20024;-45
2021/04/14 00:20:13;;;;;;;9.15;2.67;;;2.40;99.90;;;;;;5090283;28;20028;-46
2021/04/14 00:22:39;;;;;;;7.50;2.55;;;2.40;99.90;;;;;;5089474;28;20097;-46
2021/04/14 00:25:06;;;;;;;11.02;2.33;;;2.30;99.90;;;;;;5090173;28;20490;-47
2021/04/14 00:27:35;;;;;;;11.57;3.25;;;2.30;99.90;;;;;;5089348;28;20089;-45
2021/04/14 00:30:01;;;;;;;11.70;3.05;;;2.30;99.90;;;;;;5090367;28;20050;-44
2021/04/14 00:32:26;;;;;;;10.20;2.13;;;2.30;99.90;;;;;;5089791;28;20036;-46
2021/04/14 00:34:52;;;;;;;5.38;2.40;;;2.30;99.90;;;;;;5090210;28;20016;-44
2021/04/14 00:37:17;;;;;;;12.13;2.35;;;2.20;99.90;;;;;;5071189;28;20073;-44
2021/04/14 00:39:44;;;;;;;10.15;2.50;;;2.20;99.90;;;;;;5089260;28;20024;-45
2021/04/14 00:42:10;;;;;;;10.05;3.40;;;2.20;99.90;;;;;;5081242;28;20048;-44
2021/04/14 00:44:35;;;;;;;12.90;2.85;;;2.20;99.90;;;;;;5089595;28;20408;-47
2021/04/14 00:47:01;;;;;;;9.02;2.80;;;2.20;99.90;;;;;;5088882;28;20040;-46
2021/04/14 00:49:28;;;;;;;9.30;2.38;;;2.20;99.90;;;;;;5088522;28;20546;-45
2021/04/14 00:51:53;;;;;;;14.10;3.47;;;2.20;99.90;;;;;;5082792;28;20053;-45
2021/04/14 00:54:19;;;;;;;6.43;2.53;;;2.20;99.90;;;;;;5067321;28;20032;-47
2021/04/14 00:56:44;;;;;;;12.30;3.05;;;2.10;99.90;;;;;;5051406;28;20499;-47
2021/04/14 00:59:10;;;;;;;9.95;3.13;;;2.20;99.90;;;;;;5069068;28;20027;-45
2021/04/14 01:01:35;;;;;;;10.68;3.22;;;2.10;99.90;;;;;;5089521;28;20335;-48
2021/04/14 01:04:01;;;;;;;9.25;2.88;;;2.10;99.90;;;;;;5089348;28;20035;-44
2021/04/14 01:06:28;;;;;;;13.85;3.72;;;2.10;99.90;;;;;;5088551;28;20073;-44
2021/04/14 01:08:53;;;;;;;9.18;3.35;;;2.10;99.90;;;;;;5088821;28;20457;-49
2021/04/14 01:11:22;;;;;;;11.40;3.10;;;2.00;99.90;;;;;;5088309;28;20051;-46
2021/04/14 01:13:47;;;;;;;8.13;3.15;;;2.00;99.90;;;;;;5089457;28;20024;-46
2021/04/14 01:16:13;;;;;;;9.45;2.92;;;2.00;99.90;;;;;;5089415;28;20038;-45
2021/04/14 01:18:40;;;;;;;8.32;2.85;;;1.90;99.90;;;;;;5087842;28;20024;-45
2021/04/14 01:21:19;;;;;;;11.80;3.13;;;1.90;99.90;;;;;;5089233;28;20213;-45
2021/04/14 01:23:46;;;;;;;7.68;2.88;;;1.90;99.90;;;;;;5089310;28;20024;-46
2021/04/14 01:26:11;;;;;;;12.02;3.35;;;1.90;99.90;;;;;;5069938;28;20028;-45
2021/04/14 01:28:40;;;;;;;13.23;3.58;;;1.90;99.90;;;;;;5088430;28;20035;-46
2021/04/14 01:31:08;;;;;;;12.23;3.50;;;1.80;99.90;;;;;;5089357;28;20502;-46
2021/04/14 01:33:35;;;;;;;9.32;2.55;;;1.80;99.90;;;;;;5070793;28;20027;-46
2021/04/14 01:36:03;;;;;;;6.82;3.05;;;1.80;99.90;;;;;;5088780;28;20074;-45
2021/04/14 01:38:29;;;;;;;7.00;3.50;;;1.80;99.90;;;;;;5088432;28;20036;-43
2021/04/14 01:40:55;;;;;;;7.95;3.45;;;1.80;99.90;;;;;;5088267;28;20020;-45
2021/04/14 01:43:21;;;;;;;14.35;3.30;;;1.80;99.90;;;;;;5070511;28;20436;-45
2021/04/14 01:45:48;;;;;;;11.65;3.40;;;1.80;99.90;;;;;;5088790;28;20024;-45
2021/04/14 01:48:14;;;;;;;11.93;3.67;;;1.80;99.90;;;;;;5087582;28;20024;-45
2021/04/14 01:50:40;;;;;;;8.32;3.60;;;1.80;99.90;;;;;;5088281;28;20491;-44
2021/04/14 01:53:09;;;;;;;12.30;4.07;;;1.80;99.90;;;;;;5078266;28;20040;-45
2021/04/14 01:55:35;;;;;;;6.72;3.38;;;1.80;99.90;;;;;;5071185;28;20456;-45
2021/04/14 01:58:01;;;;;;;13.32;3.85;;;1.80;99.90;;;;;;5066856;28;20509;-45
2021/04/14 02:00:42;;;;;;;15.45;3.28;;;1.70;99.90;;;;;;5067683;28;20127;-46
2021/04/14 02:03:07;;;;;;;8.82;4.03;;;1.70;99.90;;;;;;5068458;28;20029;-45
2021/04/14 02:05:33;;;;;;;7.05;3.33;;;1.70;99.90;;;;;;5068425;28;20047;-45
2021/04/14 02:08:00;;;;;;;10.70;3.88;;;1.60;99.90;;;;;;5067555;28;20490;-45
2021/04/14 02:10:29;;;;;;;10.38;4.05;;;1.60;99.90;;;;;;5067923;28;20526;-45
2021/04/14 02:12:56;;;;;;;12.18;4.00;;;1.60;99.90;;;;;;5068229;28;20631;-45
2021/04/14 02:15:25;;;;;;;15.02;4.55;;;1.60;99.90;;;;;;5067968;28;20483;-45
2021/04/14 02:17:51;;;;;;;8.60;3.55;;;1.60;99.90;;;;;;5067536;28;20111;-46
2021/04/14 02:20:16;;;;;;;14.55;4.13;;;1.60;99.90;;;;;;5068195;28;20154;-44
2021/04/14 02:22:42;;;;;;;13.43;4.40;;;1.50;99.90;;;;;;5067662;28;20485;-45
2021/04/14 02:25:10;;;;;;;9.73;3.47;;;1.50;99.90;;;;;;5071235;28;20028;-48
2021/04/14 02:27:36;;;;;;;11.40;4.38;;;1.50;99.90;;;;;;5087044;28;20193;-45
2021/04/14 02:30:04;;;;;;;15.93;4.00;;;1.50;99.90;;;;;;5087458;28;20374;-44
2021/04/14 02:32:29;;;;;;;15.20;4.35;;;1.50;99.90;;;;;;5086917;28;20057;-45
2021/04/14 02:34:54;;;;;;;10.05;4.82;;;1.50;99.90;;;;;;5088067;28;20440;-47
2021/04/14 02:37:20;;;;;;;12.02;3.80;;;1.50;99.90;;;;;;5087349;28;20021;-46
2021/04/14 02:39:47;;;;;;;9.10;4.65;;;1.50;99.90;;;;;;5087835;28;20024;-45
2021/04/14 02:42:12;;;;;;;16.00;4.55;;;1.50;99.90;;;;;;5069403;28;20126;-46
2021/04/14 02:44:38;;;;;;;15.90;4.60;;;1.50;99.90;;;;;;5087564;28;20111;-46
2021/04/14 02:47:03;;;;;;;12.73;4.80;;;1.50;99.90;;;;;;5087016;28;20036;-46
2021/04/14 02:49:29;;;;;;;14.30;4.63;;;1.40;99.90;;;;;;5070585;28;20020;-45
2021/04/14 02:51:54;;;;;;;10.13;4.88;;;1.40;99.90;;;;;;5087458;28;20051;-46
2021/04/14 02:54:20;;;;;;;18.92;5.07;;;1.40;99.90;;;;;;5084536;28;20099;-45
2021/04/14 02:56:46;;;;;;;13.38;5.40;;;1.40;99.90;;;;;;5069845;28;20029;-45
2021/04/14 02:59:12;;;;;;;12.93;5.10;;;1.40;99.90;;;;;;5067169;28;20032;-45
2021/04/14 03:01:38;;;;;;;12.25;4.60;;;1.40;99.90;;;;;;5066950;28;20390;-44
2021/04/14 03:04:05;;;;;;;12.20;4.85;;;1.40;99.90;;;;;;5067648;28;20060;-44
2021/04/14 03:06:30;;;;;;;15.15;6.13;;;1.40;99.90;;;;;;5055440;28;20087;-44
2021/04/14 03:08:56;;;;;;;10.90;4.90;;;1.30;99.90;;;;;;5070615;28;20500;-44
2021/04/14 03:11:21;;;;;;;10.15;5.10;;;1.30;99.90;;;;;;5091056;28;20024;-44
2021/04/14 03:13:47;;;;;;;14.13;5.32;;;1.30;99.90;;;;;;5091186;28;20497;-44
2021/04/14 03:16:13;;;;;;;10.05;4.90;;;1.30;99.90;;;;;;5087987;28;20039;-44
2021/04/14 03:18:38;;;;;;;10.40;5.28;;;1.30;99.90;;;;;;5084616;28;20558;-44
2021/04/14 03:21:04;;;;;;;11.60;4.78;;;1.30;99.90;;;;;;5066320;28;20036;-45
2021/04/14 03:23:30;;;;;;;14.23;5.28;;;1.20;99.90;;;;;;5091586;28;20119;-45
2021/04/14 03:25:56;;;;;;;16.88;5.63;;;1.20;99.90;;;;;;5091491;28;20138;-46
2021/04/14 03:28:21;;;;;;;12.38;5.78;;;1.20;99.90;;;;;;5091061;28;20103;-45
2021/04/14 03:30:47;;;;;;;9.75;5.07;;;1.20;99.90;;;;;;5091075;28;20490;-45
2021/04/14 03:33:13;;;;;;;13.07;5.50;;;1.10;99.90;;;;;;5091015;28;20035;-44
2021/04/14 03:35:39;;;;;;;11.52;6.13;;;1.10;99.90;;;;;;5071469;28;20085;-44
2021/04/14 03:38:05;;;;;;;13.00;5.43;;;1.10;99.90;;;;;;5085886;28;20016;-45
2021/04/14 03:40:31;;;;;;;16.40;6.07;;;1.10;99.90;;;;;;5083427;28;20024;-44
2021/04/14 03:42:57;;;;;;;9.70;4.88;;;1.10;99.90;;;;;;5082555;28;20482;-46
2021/04/14 03:45:35;;;;;;;17.70;6.97;;;1.10;99.90;;;;;;5085169;28;20026;-46
2021/04/14 03:48:02;;;;;;;13.43;5.82;;;1.10;99.90;;;;;;5074931;28;20020;-47
2021/04/14 03:50:29;;;;;;;13.55;5.78;;;1.10;99.90;;;;;;5080254;28;20111;-45
2021/04/14 03:53:07;;;;;;;13.15;5.60;;;1.10;99.90;;;;;;5095303;28;20028;-45
2021/04/14 03:55:34;;;;;;;16.55;5.75;;;1.10;99.90;;;;;;5084556;28;20020;-44
2021/04/14 03:57:59;;;;;;;16.65;6.22;;;1.10;99.90;;;;;;5082749;28;20024;-45
2021/04/14 04:00:25;;;;;;;14.65;5.82;;;1.00;99.90;;;;;;5084471;28;20032;-47
2021/04/14 04:02:51;;;;;;;15.30;6.18;;;1.00;99.90;;;;;;5090421;28;20651;-47
2021/04/14 04:05:16;;;;;;;13.75;6.75;;;1.00;99.90;;;;;;5090679;28;20453;-47
2021/04/14 04:07:43;;;;;;;14.10;6.30;;;1.00;99.90;;;;;;5070169;28;20024;-48
2021/04/14 04:10:09;;;;;;;16.02;6.75;;;1.00;99.90;;;;;;5090549;28;20028;-48
2021/04/14 04:12:35;;;;;;;15.27;7.75;;;1.00;99.90;;;;;;5090383;28;20036;-46
2021/04/14 04:15:03;;;;;;;14.82;6.72;;;1.00;99.90;;;;;;5090746;28;20020;-44
2021/04/14 04:17:28;;;;;;;18.55;7.10;;;1.00;99.90;;;;;;5089848;28;20538;-47
2021/04/14 04:19:54;;;;;;;16.73;6.35;;;1.00;99.90;;;;;;5089735;28;20027;-47
2021/04/14 04:22:19;;;;;;;15.90;6.93;;;1.00;99.90;;;;;;5090067;28;20070;-47
2021/04/14 04:24:50;;;;;;;17.38;7.20;;;1.00;99.90;;;;;;5090114;28;20324;-45
2021/04/14 04:27:16;;;;;;;14.85;6.72;;;1.00;99.90;;;;;;5071384;28;20035;-52
2021/04/14 04:29:42;;;;;;;17.45;7.80;;;1.00;99.90;;;;;;5089834;28;20255;-45
2021/04/14 04:32:08;;;;;;;15.82;7.30;;;0.90;99.90;;;;;;5072193;28;20035;-47
2021/04/14 04:34:33;;;;;;;15.73;7.13;;;1.00;99.90;;;;;;5090030;28;20020;-45
2021/04/14 04:36:59;;;;;;;14.00;6.72;;;0.90;99.90;;;;;;5089938;28;20481;-45
2021/04/14 04:39:24;;;;;;;16.40;7.40;;;1.00;99.90;;;;;;5070853;28;20025;-45
2021/04/14 04:41:50;;;;;;;13.98;6.70;;;0.90;99.90;;;;;;5089697;28;20051;-46
2021/04/14 04:44:16;;;;;;;19.40;8.18;;;1.00;99.90;;;;;;5085913;28;20031;-44
2021/04/14 04:46:41;;;;;;;21.70;7.90;;;1.00;99.90;;;;;;5065092;28;20023;-46
2021/04/14 04:49:07;;;;;;;17.67;7.90;;;1.00;99.90;;;;;;5085635;28;20039;-46
2021/04/14 04:51:32;;;;;;;14.02;7.45;;;1.00;99.90;;;;;;5086261;28;20028;-45
2021/04/14 04:53:58;;;;;;;16.13;7.32;;;1.00;99.90;;;;;;5082168;28;20428;-44
2021/04/14 04:56:23;;;;;;;16.98;7.32;;;1.10;99.90;;;;;;5079482;28;20267;-45
2021/04/14 04:58:49;;;;;;;17.60;7.20;;;1.00;99.90;;;;;;5083833;28;20386;-46
2021/04/14 05:01:15;;;;;;;13.95;7.07;;;1.00;99.90;;;;;;5089774;28;20020;-45
2021/04/14 05:03:41;;;;;;;15.23;6.50;;;1.00;99.90;;;;;;5071037;28;20023;-45
2021/04/14 05:06:06;;;;;;;18.55;7.63;;;1.10;99.90;;;;;;5088978;28;20495;-44
2021/04/14 05:08:32;;;;;;;21.83;8.77;;;1.10;99.90;;;;;;5088441;28;20047;-45
2021/04/14 05:10:57;;;;;;;23.00;7.85;;;1.10;99.90;;;;;;5088487;28;20532;-46
2021/04/14 05:13:24;;;;;;;13.35;8.18;;;1.10;99.90;;;;;;5086597;28;20493;-49
2021/04/14 05:15:50;;;;;;;20.55;9.02;;;1.10;99.90;;;;;;5083643;28;20050;-47
2021/04/14 05:18:16;;;;;;;22.05;8.60;;;1.10;99.90;;;;;;5079185;28;20024;-46
2021/04/14 05:20:42;;;;;;;17.92;8.02;;;1.10;99.90;;;;;;5085423;28;20024;-48
2021/04/14 05:23:08;;;;;;;14.82;7.95;;;1.20;99.90;;;;;;5062255;28;20024;-47
2021/04/14 05:25:37;;;;;;;14.65;7.47;;;1.30;99.90;;;;;;5085210;28;20396;-45
2021/04/14 05:28:06;;;;;;;15.13;7.82;;;1.30;99.90;;;;;;5079231;28;20116;-46
2021/04/14 05:30:32;;;;;;;13.65;8.07;;;1.30;99.90;;;;;;5066217;28;20032;-46
2021/04/14 05:32:58;;;;;;;17.02;8.48;;;1.30;99.90;;;;;;5096953;28;20069;-48
2021/04/14 05:35:25;;;;;;;19.40;9.05;;;1.40;99.90;;;;;;5089091;28;20361;-45
2021/04/14 05:37:51;;;;;;;21.48;8.80;;;1.40;99.90;;;;;;5086900;28;20067;-53
2021/04/14 05:40:17;;;;;;;16.25;8.68;;;1.40;99.90;;;;;;5087842;28;20031;-46
2021/04/14 05:42:47;;;;;;;18.80;8.63;;;1.50;99.90;;;;;;5087996;28;20024;-47
2021/04/14 05:45:16;;;;;;;22.60;9.45;;;1.50;99.90;;;;;;5086152;28;20764;-50
2021/04/14 05:47:42;;;;;;;19.67;8.82;;;1.50;99.90;;;;;;5085118;28;20095;-47
2021/04/14 05:50:10;;;;;;;19.00;8.77;;;1.60;99.90;;;;;;5088092;28;20276;-47
2021/04/14 05:52:36;;;;;;;17.35;8.30;;;1.50;99.90;;;;;;5087887;28;20539;-47
2021/04/14 05:55:03;;;;;;;18.83;10.13;;;1.50;99.90;;;;;;5087795;28;20032;-46
2021/04/14 05:57:28;;;;;;;19.25;8.73;;;1.60;99.90;;;;;;5081004;28;20319;-46
2021/04/14 05:59:53;;;;;;;18.17;8.65;;;1.60;99.90;;;;;;5086800;28;20561;-45
2021/04/14 06:02:19;;;;;;;20.27;9.77;;;1.60;99.90;;;;;;5087741;28;20024;-45
2021/04/14 06:04:44;;;;;;;32.13;8.60;;;1.70;99.90;;;;;;5078170;28;20435;-46
2021/04/14 06:07:10;;;;;;;20.98;9.80;;;1.80;99.90;;;;;;5084874;28;20427;-49
2021/04/14 06:09:37;;;;;;;20.67;8.88;;;1.80;99.90;;;;;;5086973;28;20119;-47
2021/04/14 06:12:02;;;;;;;29.48;8.40;;;1.80;99.90;;;;;;5080946;28;20455;-47
2021/04/14 06:14:28;;;;;;;15.10;8.02;;;1.90;99.90;;;;;;5098734;28;20112;-45
2021/04/14 06:16:53;;;;;;;18.45;9.05;;;1.90;99.90;;;;;;5073070;28;20020;-47
2021/04/14 06:19:19;;;;;;;18.25;8.55;;;2.00;99.90;;;;;;5097847;28;20023;-46
2021/04/14 06:21:44;;;;;;;17.00;8.65;;;2.00;99.90;;;;;;5098451;28;20016;-46
2021/04/14 06:24:11;;;;;;;15.60;8.65;;;2.10;99.90;;;;;;5093254;28;20434;-46
2021/04/14 06:26:44;;;;;;;17.58;9.23;;;2.10;99.90;;;;;;5089292;28;20035;-46
2021/04/14 06:29:10;;;;;;;19.73;7.82;;;2.20;99.90;;;;;;5097884;28;20018;-47
2021/04/14 06:31:42;;;;;;;21.65;8.82;;;2.20;99.90;;;;;;5096462;28;20115;-45
2021/04/14 06:34:19;;;;;;;16.23;8.70;;;2.20;99.90;;;;;;5096275;28;20473;-46
2021/04/14 06:36:46;;;;;;;12.82;7.55;;;2.30;99.90;;;;;;5096972;28;20024;-48
2021/04/14 06:39:14;;;;;;;17.75;8.63;;;2.50;99.90;;;;;;5097040;28;20019;-47
2021/04/14 06:42:12;;;;;;;19.63;8.05;;;2.70;99.90;;;;;;5097178;28;20016;-46
2021/04/14 06:44:46;;;;;;;22.58;7.80;;;2.80;99.90;;;;;;5087342;28;20074;-48
2021/04/14 06:47:25;;;;;;;20.20;8.23;;;3.10;99.90;;;;;;5072921;28;20397;-47
2021/04/14 06:49:56;;;;;;;16.00;7.90;;;3.40;99.90;;;;;;5097436;28;20020;-49
2021/04/14 06:52:34;;;;;;;15.23;6.70;;;3.60;99.90;;;;;;5093774;28;20103;-47
2021/04/14 06:55:05;;;;;;;14.70;6.75;;;3.80;99.90;;;;;;5091667;28;20036;-46
2021/04/14 06:57:32;;;;;;;;;;;3.70;99.90;;;;;;5089800;28;20024;-47
2021/04/14 07:00:11;;;;;;;12.95;5.55;;;3.80;99.90;;;;;;5080460;28;19904;-46
2021/04/14 07:02:41;;;;;;;11.13;6.15;;;3.90;99.90;;;;;;5086739;28;20063;-48
2021/04/14 07:05:15;;;;;;;9.32;5.18;;;4.00;99.90;;;;;;5084466;28;20126;-47
2021/04/14 07:07:41;;;;;;;15.90;6.32;;;4.00;99.90;;;;;;5085406;28;20401;-48
2021/04/14 07:10:26;;;;;;;18.17;6.07;;;4.10;99.90;;;;;;5084804;28;20034;-49
2021/04/14 07:12:58;;;;;;;12.80;6.30;;;4.20;99.90;;;;;;5085792;28;20123;-46
2021/04/14 07:15:24;;;;;;;15.95;5.68;;;4.20;99.90;;;;;;5067779;28;20028;-47
2021/04/14 07:18:14;;;;;;;13.85;5.65;;;4.30;99.90;;;;;;5085357;28;20165;-48
2021/04/14 07:20:49;;;;;;;20.50;6.40;;;4.50;99.90;;;;;;5069502;28;20492;-47
2021/04/14 07:23:28;;;;;;;14.43;5.28;;;4.50;99.90;;;;;;5088010;28;20043;-47
2021/04/14 07:26:24;;;;;;;12.27;5.05;;;4.50;99.90;;;;;;5081645;28;20035;-47
2021/04/14 07:29:22;;;;;;;13.18;5.07;;;4.70;99.90;;;;;;5084835;28;20401;-48
2021/04/14 07:31:52;;;;;;;10.95;5.53;;;4.80;99.90;;;;;;5069615;28;20082;-49
2021/04/14 07:34:27;;;;;;;13.82;5.22;;;4.90;99.90;;;;;;5088147;28;20111;-48
2021/04/14 07:36:59;;;;;;;10.75;4.20;;;4.90;99.90;;;;;;5085280;28;20032;-50
2021/04/14 07:39:34;;;;;;;16.05;4.88;;;5.10;99.90;;;;;;5086606;28;20076;-47
2021/04/14 07:42:30;;;;;;;8.93;4.40;;;5.60;99.90;;;;;;5087139;28;20028;-47
2021/04/14 07:44:59;;;;;;;14.10;3.42;;;6.30;99.90;;;;;;5068552;28;20171;-48
2021/04/14 07:47:26;;;;;;;11.90;4.30;;;7.00;99.90;;;;;;5086352;28;20020;-47
2021/04/14 07:49:51;;;;;;;11.45;3.35;;;7.30;99.90;;;;;;5087126;28;20089;-47
2021/04/14 07:52:28;;;;;;;14.27;3.33;;;7.90;99.90;;;;;;5079718;28;20061;-47
2021/04/14 07:54:56;;;;;;;9.77;3.17;;;8.40;99.90;;;;;;5075198;28;20029;-48
2021/04/14 07:57:32;;;;;;;6.55;3.00;;;9.00;99.90;;;;;;5089158;28;20024;-48
2021/04/14 08:00:10;;;;;;;7.30;2.75;;;9.70;99.90;;;;;;5083792;28;20482;-49
2021/04/14 08:02:36;;;;;;;8.50;3.35;;;10.40;98.80;;;;;;5090031;28;20040;-48
2021/04/14 08:05:27;;;;;;;9.23;3.20;;;11.10;95.30;;;;;;5083994;28;20473;-47
2021/04/14 08:07:53;;;;;;;10.80;3.63;;;11.30;91.20;;;;;;5084447;28;20043;-48
2021/04/14 08:10:24;;;;;;;9.73;2.72;;;11.30;90.50;;;;;;5090975;28;20020;-47
2021/04/14 08:12:54;;;;;;;7.88;2.58;;;11.90;83.50;;;;;;5089608;28;20032;-48
2021/04/14 08:15:26;;;;;;;9.20;2.55;;;10.90;88.60;;;;;;5075706;28;20040;-47
2021/04/14 08:17:52;;;;;;;8.50;2.67;;;11.60;88.20;;;;;;5096271;28;20091;-48
2021/04/14 08:20:30;;;;;;;6.95;2.78;;;12.20;85.20;;;;;;5095718;28;20122;-49
2021/04/14 08:23:19;;;;;;;5.13;2.35;;;12.60;81.70;;;;;;5098403;28;20536;-49
2021/04/14 08:25:48;;;;;;;8.13;2.70;;;13.00;80.10;;;;;;5100322;28;20066;-48
2021/04/14 08:28:27;;;;;;;5.50;2.47;;;13.30;76.80;;;;;;5097025;28;20023;-48
2021/04/14 08:31:05;;;;;;;9.82;3.28;;;13.80;73.30;;;;;;5097598;28;20020;-48
2021/04/14 08:33:30;;;;;;;5.30;2.75;;;13.50;71.50;;;;;;5074003;28;20055;-47
2021/04/14 08:36:27;;;;;;;5.07;2.60;;;13.30;72.10;;;;;;5098190;28;20515;-48
2021/04/14 08:38:53;;;;;;;10.15;3.05;;;12.20;74.40;;;;;;5089041;28;20147;-50
2021/04/14 08:41:22;;;;;;;6.68;2.42;;;11.50;78.80;;;;;;5092638;28;20112;-49
2021/04/14 08:43:51;;;;;;;9.32;3.15;;;11.30;82.00;;;;;;5097536;28;20119;-47
2021/04/14 08:46:29;;;;;;;8.52;3.03;;;11.30;80.40;;;;;;5099202;28;20027;-49
2021/04/14 08:49:03;;;;;;;7.32;2.67;;;11.60;78.00;;;;;;5087066;28;20050;-49
2021/04/14 08:51:45;;;;;;;5.68;2.58;;;11.90;79.20;;;;;;5069715;28;20081;-47
2021/04/14 08:54:17;;;;;;;9.55;2.95;;;12.20;79.10;;;;;;5084157;28;20401;-49
2021/04/14 08:56:43;;;;;;;8.15;2.28;;;13.20;69.90;;;;;;5084408;28;20538;-48
2021/04/14 08:59:11;;;;;;;8.50;2.58;;;13.30;67.70;;;;;;5084178;28;20016;-48
2021/04/14 09:01:37;;;;;;;5.78;2.10;;;12.80;70.00;;;;;;5060375;28;20051;-48
2021/04/14 09:04:09;;;;;;;14.70;3.10;;;12.10;72.40;;;;;;5088840;28;20043;-49
2021/04/14 09:06:37;;;;;;;12.73;3.33;;;11.30;75.00;;;;;;5096396;28;20028;-48
2021/04/14 09:09:09;;;;;;;7.10;3.03;;;10.30;78.30;;;;;;5097263;28;20492;-48
2021/04/14 09:11:36;;;;;;;9.40;2.65;;;9.30;84.20;;;;;;5094639;28;20467;-49
2021/04/14 09:14:14;;;;;;;7.53;2.42;;;8.80;91.10;;;;;;5103723;28;20034;-48
2021/04/14 09:16:59;;;;;;;10.07;2.40;;;8.40;93.10;;;;;;5098920;28;20024;-47
2021/04/14 09:19:35;;;;;;;11.13;2.50;;;8.10;93.30;;;;;;5098584;28;20032;-47
2021/04/14 09:22:27;;;;;;;8.63;2.75;;;8.00;95.00;;;;;;5095442;28;20042;-47
2021/04/14 09:25:08;;;;;;;7.43;2.70;;;8.10;95.00;;;;;;5096515;28;20078;-48
2021/04/14 09:27:46;;;;;;;7.45;1.75;;;9.40;96.70;;;;;;5096596;28;20024;-48
2021/04/14 09:30:46;;;;;;;5.50;1.80;;;11.60;91.20;;;;;;5093818;28;20278;-47
2021/04/14 09:33:13;;;;;;;8.10;1.83;;;13.90;66.70;;;;;;5028320;28;20489;-49
2021/04/14 09:36:00;;;;;;;5.88;2.00;;;13.60;61.10;;;;;;5097057;28;20269;-48
2021/04/14 09:38:34;;;;;;;6.88;1.88;;;13.40;66.60;;;;;;5077725;28;20267;-48
2021/04/14 09:41:26;;;;;;;5.10;1.85;;;13.20;65.20;;;;;;5086236;28;20032;-47
2021/04/14 09:43:55;;;;;;;8.45;2.15;;;12.50;64.20;;;;;;5083507;28;20035;-49
2021/04/14 09:46:31;;;;;;;7.18;2.20;;;11.80;67.70;;;;;;5088421;28;20027;-46
2021/04/14 09:49:32;;;;;;;7.55;2.15;;;10.70;70.90;;;;;;5067247;28;20073;-46
2021/04/14 09:52:00;;;;;;;5.53;2.08;;;10.10;73.50;;;;;;5093830;28;20076;-47
2021/04/14 09:54:30;;;;;;;7.03;2.45;;;9.90;77.80;;;;;;5095079;28;20537;-50
2021/04/14 09:56:58;;;;;;;10.37;2.37;;;9.70;76.20;;;;;;5087633;28;20107;-47
2021/04/14 09:59:36;;;;;;;8.45;2.22;;;10.20;77.50;;;;;;5084815;28;20116;-47
2021/04/14 10:02:18;;;;;;;11.27;1.90;;;10.50;76.70;;;;;;5083891;28;20063;-48
2021/04/14 10:04:47;;;;;;;8.90;2.65;;;10.20;74.40;;;;;;5081982;28;20051;-47
2021/04/14 10:07:22;;;;;;;6.63;1.90;;;10.10;77.00;;;;;;5088631;28;20055;-47
2021/04/14 10:09:48;;;;;;;9.40;2.63;;;10.00;79.50;;;;;;5085488;28;20032;-47
2021/04/14 10:12:21;;;;;;;8.27;2.92;;;9.80;79.90;;;;;;5087953;28;20024;-46
2021/04/14 10:14:48;;;;;;;6.10;1.85;;;9.60;80.10;;;;;;5073304;28;20509;-47
2021/04/14 10:17:21;;;;;;;9.77;2.00;;;9.40;80.70;;;;;;5070363;28;20647;-47
2021/04/14 10:19:53;;;;;;;4.50;1.60;;;9.20;80.80;;;;;;5087601;28;20028;-48
2021/04/14 10:22:24;;;;;;;6.18;1.75;;;9.20;82.50;;;;;;5088321;28;20446;-47
2021/04/14 10:25:05;;;;;;;5.32;1.90;;;9.30;81.80;;;;;;5088261;28;20473;-48
2021/04/14 10:27:31;;;;;;;8.25;2.38;;;9.50;83.80;;;;;;5069143;28;20112;-47
2021/04/14 10:30:00;;;;;;;10.75;2.13;;;9.70;77.10;;;;;;5087710;28;20038;-47
2021/04/14 10:32:30;;;;;;;5.20;1.80;;;10.10;79.90;;;;;;5087712;28;20166;-46
2021/04/14 10:35:06;;;;;;;9.32;2.28;;;10.20;77.30;;;;;;5066944;28;20020;-46
2021/04/14 10:37:43;;;;;;;6.90;2.03;;;10.50;78.00;;;;;;5086418;28;20105;-49
2021/04/14 10:40:18;;;;;;;4.88;1.63;;;10.20;74.50;;;;;;5088345;28;20016;-47
2021/04/14 10:42:44;;;;;;;7.47;2.83;;;10.10;78.30;;;;;;5087433;28;20687;-49
2021/04/14 10:45:13;;;;;;;6.60;2.40;;;10.00;78.80;;;;;;5089257;28;20069;-48
2021/04/14 10:47:41;;;;;;;5.43;2.30;;;10.10;78.30;;;;;;5085460;28;20015;-48
2021/04/14 10:50:21;;;;;;;11.77;2.80;;;10.40;75.30;;;;;;5086465;28;20520;-48
2021/04/14 10:52:52;;;;;;;6.53;2.25;;;11.60;79.00;;;;;;5084918;28;20035;-50
2021/04/14 10:55:22;;;;;;;6.65;2.08;;;12.30;72.00;;;;;;5088389;28;20024;-47
2021/04/14 10:57:54;;;;;;;4.57;1.83;;;12.30;66.40;;;;;;5079727;28;20477;-47
2021/04/14 11:00:31;;;;;;;7.07;1.90;;;12.00;68.60;;;;;;5088320;28;20032;-49
2021/04/14 11:03:04;;;;;;;5.55;1.88;;;11.40;68.60;;;;;;5085209;28;20040;-46
2021/04/14 11:05:30;;;;;;;6.82;2.20;;;11.10;71.30;;;;;;5072965;28;20028;-47
2021/04/14 11:07:56;;;;;;;6.32;1.98;;;10.80;72.30;;;;;;5079396;28;20027;-47
2021/04/14 11:10:34;;;;;;;9.05;1.70;;;10.60;73.40;;;;;;5078595;28;20024;-47
2021/04/14 11:13:01;;;;;;;4.80;1.67;;;10.80;70.80;;;;;;5086031;28;20035;-47
2021/04/14 11:15:31;;;;;;;8.32;1.90;;;10.60;73.20;;;;;;5085403;28;20036;-46
2021/04/14 11:18:07;;;;;;;4.72;1.98;;;10.70;74.70;;;;;;5085511;28;20028;-47
2021/04/14 11:20:43;;;;;;;5.20;2.28;;;10.60;74.10;;;;;;5063903;28;20028;-46
2021/04/14 11:23:18;;;;;;;5.20;2.05;;;10.70;71.70;;;;;;5086496;28;20112;-46
2021/04/14 11:25:43;;;;;;;8.75;2.10;;;11.50;71.40;;;;;;5086130;28;20502;-47
2021/04/14 11:28:16;;;;;;;7.22;2.20;;;13.10;73.20;;;;;;5074723;28;20530;-49
2021/04/14 11:30:57;;;;;;;10.65;2.38;;;15.20;65.60;;;;;;5089634;28;20055;-47
2021/04/14 11:33:36;;;;;;;5.25;2.22;;;16.50;58.60;;;;;;5089713;28;20432;-47
2021/04/14 11:36:04;;;;;;;3.88;1.92;;;16.00;57.40;;;;;;5088355;28;20024;-50
2021/04/14 11:38:39;;;;;;;2.72;1.40;;;15.10;56.60;;;;;;5089255;28;20058;-47
2021/04/14 11:41:25;;;;;;;5.93;1.95;;;14.10;57.90;;;;;;5090940;28;20024;-47
2021/04/14 11:43:50;;;;;;;3.67;2.13;;;13.70;59.00;;;;;;5089510;28;20554;-47
2021/04/14 11:46:28;;;;;;;7.28;2.10;;;12.80;60.10;;;;;;5089715;28;20028;-47
2021/04/14 11:48:59;;;;;;;5.05;1.90;;;12.10;61.90;;;;;;5085763;28;20042;-47
2021/04/14 11:51:33;;;;;;;5.68;1.80;;;11.60;61.30;;;;;;5068352;28;20505;-46
2021/04/14 11:54:05;;;;;;;7.93;2.15;;;11.10;63.10;;;;;;5088087;28;20118;-49
2021/04/14 11:56:38;;;;;;;5.60;1.45;;;10.80;64.50;;;;;;5086423;28;20058;-48
2021/04/14 11:59:17;;;;;;;5.80;1.58;;;10.60;66.50;;;;;;5070684;28;20114;-50
2021/04/14 12:01:50;;;;;;;5.53;1.38;;;10.60;66.10;;;;;;5069553;28;20501;-46
2021/04/14 12:04:15;;;;;;;7.43;1.70;;;10.50;65.50;;;;;;5086939;28;20035;-47
2021/04/14 12:06:41;;;;;;;6.22;1.75;;;10.80;66.70;;;;;;5086165;28;20477;-50
2021/04/14 12:09:06;;;;;;;5.68;1.75;;;10.90;67.90;;;;;;5088526;28;20100;-48
2021/04/14 12:11:32;;;;;;;4.55;1.40;;;11.00;65.60;;;;;;5090516;28;20119;-47
2021/04/14 12:13:58;;;;;;;3.92;1.70;;;10.80;65.20;;;;;;5071653;28;20035;-47
2021/04/14 12:16:24;;;;;;;6.00;1.50;;;10.60;64.50;;;;;;5089733;28;20032;-46
2021/04/14 12:18:50;;;;;;;4.93;1.70;;;10.40;66.00;;;;;;5071275;28;20019;-48
2021/04/14 12:21:15;;;;;;;4.07;1.75;;;10.70;67.00;;;;;;5089146;28;20015;-47
2021/04/14 12:23:41;;;;;;;11.45;1.98;;;11.40;64.20;;;;;;5089006;28;20016;-47
2021/04/14 12:26:07;;;;;;;7.88;2.42;;;11.90;68.60;;;;;;5088746;28;20494;-50
2021/04/14 12:28:33;;;;;;;5.72;1.50;;;13.10;68.80;;;;;;5088913;28;20050;-47
2021/04/14 12:31:00;;;;;;;5.45;1.70;;;13.40;61.30;;;;;;5094562;28;20541;-47
2021/04/14 12:33:26;;;;;;;4.45;1.48;;;13.70;62.20;;;;;;5098687;28;20081;-46
2021/04/14 12:35:53;;;;;;;4.90;1.52;;;13.70;59.10;;;;;;5097959;28;20069;-48
2021/04/14 12:38:18;;;;;;;6.75;1.63;;;13.40;58.80;;;;;;5106309;28;20055;-48
2021/04/14 12:40:44;;;;;;;3.88;1.33;;;13.00;58.00;;;;;;5089102;28;20054;-48
2021/04/14 12:43:09;;;;;;;4.90;1.88;;;12.50;60.20;;;;;;5089255;28;20454;-48
2021/04/14 12:45:39;;;;;;;4.18;1.48;;;12.00;62.30;;;;;;5088858;28;20024;-48
2021/04/14 12:48:12;;;;;;;5.88;1.27;;;11.30;67.00;;;;;;5088966;28;20027;-47
2021/04/14 12:50:37;;;;;;;3.28;1.30;;;10.80;68.20;;;;;;5066937;28;20020;-47
2021/04/14 12:53:05;;;;;;;2.90;1.33;;;10.10;72.10;;;;;;5069392;28;20051;-51
2021/04/14 12:55:38;;;;;;;3.65;1.90;;;9.70;73.20;;;;;;5069356;28;20013;-47
2021/04/14 12:58:07;;;;;;;3.47;1.27;;;9.50;74.00;;;;;;5068813;28;20021;-46
2021/04/14 13:00:33;;;;;;;4.07;1.40;;;9.50;71.70;;;;;;5069317;28;20020;-48